Terminal Aerodrome Forecast
Issued by NWS

Home | Current Version | Previous Version | Text Only | Print | Product List | Glossary On
Versions: 1 2 3 4 5 6 7 8 9 10 11 12 13 14 15 16 17 18 19 20 21 22 23 24 25 26 27 28 29 30 31 32 33 34 35 36 37 38 39 40 41 42 43 44 45 46 47
000
FTUS46 KOTX 191135
TAFPUW
TAF
KPUW 191135Z 1912/2012 10010KT P6SM SCT040 OVC100
      TEMPO 1912/1916 -SHRA BKN040 OVC080
     FM191600 11007KT P6SM SCT025 OVC040
      TEMPO 1916/1920 -SHRA BKN025 OVC040
     FM192000 23009KT P6SM -SHRA BKN050 OVC080
     FM200400 12008KT P6SM VCSH OVC060=

USA.gov is the U.S. government's official web portal to all federal, state and local government web resources and services.